Time;durP1;ratioP1;P1;durP2;ratioP2;P2;SDS_P1;SDS_P2;PMS_P1;PMS_P2;Temp;Humidity;BMP_temperature;BMP_pressure;BME280_temperature;BME280_humidity;BME280_pressure;Samples;Min_cycle;Max_cycle;Signal;HPM_P1;HPM_P2
2020/12/22 00:01:56;;;;;;;0.77;0.60;;;13.80;99.90;;;;;;5002251;28;20841;-26
2020/12/22 00:04:27;;;;;;;0.50;0.40;;;13.80;99.90;;;;;;5010283;28;21130;-26
2020/12/22 00:07:01;;;;;;;0.40;0.30;;;13.70;99.90;;;;;;5006334;28;20464;-25
2020/12/22 00:09:34;;;;;;;0.40;0.40;;;13.70;99.90;;;;;;5002079;28;20810;-26
2020/12/22 00:12:15;;;;;;;0.83;0.50;;;13.70;99.90;;;;;;5009667;28;20489;-26
2020/12/22 00:14:46;;;;;;;0.40;0.40;;;13.80;99.90;;;;;;5009825;28;20452;-26
2020/12/22 00:17:18;;;;;;;0.50;0.50;;;13.70;99.90;;;;;;5011269;28;20457;-26
2020/12/22 00:19:48;;;;;;;0.50;0.40;;;13.70;99.90;;;;;;5007085;28;20523;-26
2020/12/22 00:22:22;;;;;;;2.00;0.50;;;13.70;99.90;;;;;;5009572;28;20545;-26
2020/12/22 00:24:52;;;;;;;0.50;0.50;;;13.60;99.90;;;;;;5009533;28;20480;-26
2020/12/22 00:27:22;;;;;;;0.90;0.50;;;13.60;99.90;;;;;;5008730;28;20523;-26
2020/12/22 00:29:52;;;;;;;1.23;1.10;;;13.50;99.90;;;;;;5009630;28;20459;-25
2020/12/22 00:32:23;;;;;;;0.60;0.60;;;13.40;99.90;;;;;;5009488;28;20449;-26
2020/12/22 00:34:53;;;;;;;0.50;0.40;;;13.10;99.90;;;;;;5008922;28;20453;-26
2020/12/22 00:37:24;;;;;;;0.90;0.30;;;12.90;99.90;;;;;;4999592;28;20475;-25
2020/12/22 00:39:54;;;;;;;2.15;0.30;;;12.60;99.90;;;;;;4996415;28;20777;-27
2020/12/22 00:42:24;;;;;;;0.53;0.20;;;12.40;99.90;;;;;;5009032;28;20228;-27
2020/12/22 00:44:54;;;;;;;0.43;0.30;;;12.30;99.90;;;;;;5008887;28;20492;-26
2020/12/22 00:47:24;;;;;;;0.40;0.30;;;12.20;99.90;;;;;;5008981;28;20202;-25
2020/12/22 00:49:55;;;;;;;0.40;0.30;;;12.20;99.90;;;;;;5007190;28;20232;-26
2020/12/22 00:52:26;;;;;;;1.00;0.43;;;12.20;99.90;;;;;;4993545;28;20225;-26
2020/12/22 00:54:56;;;;;;;0.73;0.60;;;12.10;99.90;;;;;;5006256;28;20274;-26
2020/12/22 00:57:26;;;;;;;0.90;0.75;;;12.10;99.90;;;;;;5004082;28;20221;-27
2020/12/22 00:59:56;;;;;;;0.60;0.60;;;12.00;99.90;;;;;;5008943;28;20197;-26
2020/12/22 01:02:27;;;;;;;1.20;1.10;;;12.00;99.90;;;;;;5006196;28;20209;-26
2020/12/22 01:04:57;;;;;;;0.77;0.70;;;12.00;99.90;;;;;;4999268;28;20655;-26
2020/12/22 01:07:28;;;;;;;0.68;0.65;;;12.00;99.90;;;;;;5008873;28;20202;-27
2020/12/22 01:09:58;;;;;;;0.50;0.50;;;12.00;99.90;;;;;;5004829;28;20200;-27
2020/12/22 01:12:28;;;;;;;1.15;0.60;;;11.90;99.90;;;;;;5008465;28;20201;-27
2020/12/22 01:14:58;;;;;;;0.70;0.68;;;11.80;99.90;;;;;;5009568;28;20205;-28
2020/12/22 01:17:28;;;;;;;1.20;0.85;;;11.70;99.90;;;;;;5009004;28;20219;-26
2020/12/22 01:19:58;;;;;;;1.17;0.70;;;11.50;99.90;;;;;;5009271;28;20207;-25
2020/12/22 01:22:29;;;;;;;1.02;0.50;;;11.50;99.90;;;;;;5008935;28;20208;-26
2020/12/22 01:24:59;;;;;;;0.75;0.70;;;11.30;99.90;;;;;;5008327;28;20540;-26
2020/12/22 01:27:29;;;;;;;0.60;0.60;;;11.30;99.90;;;;;;5011539;28;20195;-25
2020/12/22 01:29:59;;;;;;;0.52;0.40;;;11.20;99.90;;;;;;5009493;28;20727;-26
2020/12/22 01:32:30;;;;;;;0.50;0.30;;;11.20;99.90;;;;;;5009308;28;20280;-26
2020/12/22 01:35:00;;;;;;;0.95;0.60;;;11.10;99.90;;;;;;5008726;28;20188;-26
2020/12/22 01:37:31;;;;;;;0.80;0.60;;;11.10;99.90;;;;;;5006432;28;20204;-26
2020/12/22 01:40:01;;;;;;;0.80;0.77;;;11.10;99.90;;;;;;5006842;28;20242;-26
2020/12/22 01:42:31;;;;;;;1.10;0.90;;;11.10;99.90;;;;;;5007425;28;20568;-26
2020/12/22 01:45:01;;;;;;;0.88;0.70;;;11.10;99.90;;;;;;5008424;28;20270;-27
2020/12/22 01:47:31;;;;;;;0.80;0.70;;;11.00;99.90;;;;;;5009000;28;20212;-26
2020/12/22 01:50:01;;;;;;;1.95;0.60;;;11.00;99.90;;;;;;5009356;28;20602;-27
2020/12/22 01:52:33;;;;;;;0.45;0.45;;;11.00;99.90;;;;;;5012764;28;20228;-26
2020/12/22 01:55:03;;;;;;;1.10;1.00;;;11.10;99.90;;;;;;5013224;28;20546;-26
2020/12/22 01:57:33;;;;;;;0.93;0.90;;;11.00;99.90;;;;;;5011956;28;20301;-26
2020/12/22 02:00:05;;;;;;;1.67;0.90;;;11.00;99.90;;;;;;5013556;28;20198;-26
2020/12/22 02:02:38;;;;;;;1.02;0.90;;;11.00;99.90;;;;;;5012954;28;20193;-25
2020/12/22 02:05:08;;;;;;;1.10;0.80;;;11.00;99.90;;;;;;5013055;28;20224;-25
2020/12/22 02:07:39;;;;;;;1.83;1.00;;;11.10;99.90;;;;;;5012769;28;20246;-26
2020/12/22 02:10:09;;;;;;;0.55;0.55;;;10.90;99.90;;;;;;5012275;28;20236;-26
2020/12/22 02:12:42;;;;;;;1.98;0.70;;;10.70;99.90;;;;;;5009880;28;20204;-27
2020/12/22 02:15:12;;;;;;;3.92;0.77;;;10.30;99.90;;;;;;5013721;28;20266;-26
2020/12/22 02:17:43;;;;;;;24.60;4.45;;;10.10;99.90;;;;;;5012634;28;20750;-27
2020/12/22 02:20:13;;;;;;;0.68;0.40;;;9.90;99.90;;;;;;5012463;28;20204;-27
2020/12/22 02:22:44;;;;;;;1.13;0.57;;;9.70;99.90;;;;;;5012220;28;20188;-27
2020/12/22 02:25:16;;;;;;;0.50;0.40;;;9.50;99.90;;;;;;5012604;28;20211;-27
2020/12/22 02:27:46;;;;;;;0.50;0.50;;;9.40;99.90;;;;;;5011632;28;20548;-28
2020/12/22 02:30:17;;;;;;;0.50;0.50;;;9.20;99.90;;;;;;4998776;28;20204;-27
2020/12/22 02:32:47;;;;;;;0.60;0.30;;;9.00;99.90;;;;;;4997716;28;20597;-28
2020/12/22 02:35:17;;;;;;;0.55;0.40;;;8.90;99.90;;;;;;5012437;28;20254;-27
2020/12/22 02:37:48;;;;;;;0.52;0.50;;;8.90;99.90;;;;;;5011677;28;20206;-27
2020/12/22 02:40:18;;;;;;;0.70;0.70;;;8.90;99.90;;;;;;5012494;28;20196;-28
2020/12/22 02:42:49;;;;;;;0.55;0.50;;;8.90;99.90;;;;;;5010922;28;20203;-27
2020/12/22 02:45:19;;;;;;;0.77;0.70;;;8.80;99.90;;;;;;5000477;28;20222;-27
2020/12/22 02:47:49;;;;;;;0.60;0.60;;;8.70;99.90;;;;;;5011460;28;20199;-28
2020/12/22 02:50:19;;;;;;;1.17;1.00;;;8.60;99.90;;;;;;5012413;28;20274;-27
2020/12/22 02:52:51;;;;;;;0.60;0.47;;;8.60;99.90;;;;;;5010411;28;20227;-27
2020/12/22 02:55:21;;;;;;;0.70;0.40;;;8.50;99.90;;;;;;5011023;28;20187;-27
2020/12/22 02:57:51;;;;;;;0.43;0.30;;;8.40;99.90;;;;;;5011283;28;20224;-27
2020/12/22 03:00:21;;;;;;;0.77;0.73;;;8.40;99.90;;;;;;5012262;28;20207;-27
2020/12/22 03:02:51;;;;;;;2.05;1.13;;;8.40;99.90;;;;;;5010894;28;20199;-28
2020/12/22 03:05:21;;;;;;;0.50;0.50;;;8.40;99.90;;;;;;5012117;28;20311;-27
2020/12/22 03:07:53;;;;;;;0.50;0.50;;;8.30;99.90;;;;;;5011966;28;20188;-27
2020/12/22 03:10:23;;;;;;;0.57;0.57;;;8.30;99.90;;;;;;5011348;28;20231;-26
2020/12/22 03:12:53;;;;;;;0.80;0.80;;;8.30;99.90;;;;;;5011077;28;20712;-26
2020/12/22 03:15:23;;;;;;;0.75;0.75;;;8.20;99.90;;;;;;5011692;28;20207;-27
2020/12/22 03:17:53;;;;;;;0.85;0.85;;;8.10;99.90;;;;;;5011708;28;20199;-27
2020/12/22 03:20:24;;;;;;;0.50;0.43;;;8.10;99.90;;;;;;5011751;28;20215;-27
2020/12/22 03:22:55;;;;;;;0.50;0.50;;;8.10;99.90;;;;;;5011665;28;20187;-27
2020/12/22 03:25:25;;;;;;;1.08;0.98;;;8.10;99.90;;;;;;5011056;28;20315;-27
2020/12/22 03:27:55;;;;;;;1.20;1.10;;;8.10;99.90;;;;;;5010259;28;20203;-27
2020/12/22 03:30:26;;;;;;;0.70;0.70;;;8.10;99.90;;;;;;5011711;28;20207;-27
2020/12/22 03:32:56;;;;;;;0.88;0.88;;;8.00;99.90;;;;;;5017546;28;20202;-27
2020/12/22 03:35:26;;;;;;;1.88;0.70;;;8.00;99.90;;;;;;5011277;28;20199;-26
2020/12/22 03:37:57;;;;;;;0.90;0.82;;;8.00;99.90;;;;;;5010991;28;20207;-26
2020/12/22 03:40:27;;;;;;;0.70;0.47;;;8.00;99.90;;;;;;5010371;28;20187;-26
2020/12/22 03:42:57;;;;;;;0.70;0.70;;;8.00;99.90;;;;;;5010481;28;20273;-28
2020/12/22 03:45:28;;;;;;;0.90;0.88;;;8.00;99.90;;;;;;5010898;28;20698;-25
2020/12/22 03:47:58;;;;;;;0.82;0.82;;;8.00;99.90;;;;;;4999659;28;20554;-27
2020/12/22 03:50:28;;;;;;;0.52;0.52;;;8.00;99.90;;;;;;5010286;28;20667;-26
2020/12/22 03:53:02;;;;;;;0.70;0.68;;;7.90;99.90;;;;;;5009992;28;20547;-26
2020/12/22 03:55:32;;;;;;;1.20;0.80;;;7.80;99.90;;;;;;5010100;28;20210;-26
2020/12/22 03:58:02;;;;;;;0.60;0.60;;;7.80;99.90;;;;;;5009981;28;20207;-26
2020/12/22 04:00:32;;;;;;;0.68;0.68;;;7.80;99.90;;;;;;5007798;28;20663;-27
2020/12/22 04:03:02;;;;;;;0.60;0.60;;;7.60;99.90;;;;;;5002166;28;20257;-27
2020/12/22 04:05:33;;;;;;;0.70;0.70;;;7.60;99.90;;;;;;5010033;28;20310;-27
2020/12/22 04:08:04;;;;;;;0.63;0.63;;;7.60;99.90;;;;;;5005450;28;20250;-27
2020/12/22 04:10:34;;;;;;;0.70;0.68;;;7.50;99.90;;;;;;5004947;28;20277;-27
2020/12/22 04:13:04;;;;;;;1.05;0.60;;;7.40;99.90;;;;;;5009602;28;20195;-27
2020/12/22 04:15:34;;;;;;;0.98;0.88;;;7.50;99.90;;;;;;5009594;28;20203;-26
2020/12/22 04:18:04;;;;;;;2.03;0.80;;;7.50;99.90;;;;;;5010236;28;20659;-26
2020/12/22 04:20:41;;;;;;;1.23;0.88;;;7.50;99.90;;;;;;5006070;28;20636;-26
2020/12/22 04:23:12;;;;;;;4.38;0.95;;;7.60;99.90;;;;;;5010459;28;20238;-26
2020/12/22 04:25:42;;;;;;;0.77;0.77;;;7.70;99.90;;;;;;5009618;28;20211;-26
2020/12/22 04:28:12;;;;;;;1.42;0.85;;;7.80;99.90;;;;;;4992198;28;20758;-26
2020/12/22 04:30:42;;;;;;;3.20;1.05;;;7.90;99.90;;;;;;5001851;28;20207;-26
2020/12/22 04:33:13;;;;;;;4.35;0.90;;;7.90;99.90;;;;;;5010171;28;20269;-27
2020/12/22 04:35:43;;;;;;;1.20;1.10;;;8.00;99.90;;;;;;4998967;28;20195;-26
2020/12/22 04:38:14;;;;;;;2.53;1.60;;;8.00;99.90;;;;;;5009702;28;20199;-26
2020/12/22 04:40:45;;;;;;;1.65;1.05;;;8.00;99.90;;;;;;5009175;28;20662;-26
2020/12/22 04:43:16;;;;;;;1.63;1.48;;;8.00;99.90;;;;;;5009081;28;20207;-26
2020/12/22 04:45:50;;;;;;;3.08;0.98;;;8.00;99.90;;;;;;5009085;28;20215;-26
2020/12/22 04:48:21;;;;;;;1.35;1.25;;;8.00;99.90;;;;;;5009722;28;20188;-26
2020/12/22 04:51:08;;;;;;;2.25;1.67;;;8.00;99.90;;;;;;5001874;28;20705;-25
2020/12/22 04:53:40;;;;;;;1.73;1.63;;;8.20;99.90;;;;;;5003746;28;20278;-26
2020/12/22 04:56:10;;;;;;;1.45;1.35;;;8.20;99.90;;;;;;5004184;28;20614;-25
2020/12/22 04:58:41;;;;;;;2.05;1.30;;;8.10;99.90;;;;;;5008277;28;20204;-25
2020/12/22 05:01:11;;;;;;;2.88;1.95;;;8.20;99.90;;;;;;5004532;28;20196;-26
2020/12/22 05:03:41;;;;;;;1.50;1.35;;;8.20;99.90;;;;;;5009035;28;20196;-25
2020/12/22 05:06:11;;;;;;;2.80;1.40;;;8.10;99.90;;;;;;5009186;28;20227;-26
2020/12/22 05:08:42;;;;;;;1.88;1.63;;;8.10;99.90;;;;;;5010230;28;20257;-27
2020/12/22 05:11:17;;;;;;;1.90;1.75;;;8.10;99.90;;;;;;5006725;28;20262;-26
2020/12/22 05:13:49;;;;;;;4.25;2.10;;;8.10;99.90;;;;;;5007448;28;20245;-27
2020/12/22 05:16:27;;;;;;;3.05;2.00;;;8.10;99.90;;;;;;5009379;28;20207;-26
2020/12/22 05:18:57;;;;;;;1.75;1.65;;;8.00;99.90;;;;;;5009086;28;20206;-26
2020/12/22 05:21:36;;;;;;;3.50;1.67;;;8.00;99.90;;;;;;5009807;28;20203;-26
2020/12/22 05:24:08;;;;;;;2.20;1.80;;;8.00;99.90;;;;;;5009403;28;20187;-26
2020/12/22 05:26:40;;;;;;;2.15;1.70;;;7.90;99.90;;;;;;4999114;28;20212;-26
2020/12/22 05:29:11;;;;;;;2.33;1.58;;;7.80;99.90;;;;;;5010840;28;20517;-27
2020/12/22 05:31:47;;;;;;;3.05;2.20;;;7.60;99.90;;;;;;5000089;28;20195;-26
2020/12/22 05:34:19;;;;;;;2.53;1.25;;;7.60;99.90;;;;;;5012648;28;20567;-26
2020/12/22 05:36:49;;;;;;;4.15;1.73;;;7.60;99.90;;;;;;5013997;28;20227;-26
2020/12/22 05:39:22;;;;;;;3.60;1.60;;;7.50;99.90;;;;;;5013413;28;20354;-26
2020/12/22 05:41:52;;;;;;;5.10;1.40;;;7.40;99.90;;;;;;5013348;28;20192;-27
2020/12/22 05:44:26;;;;;;;5.60;1.90;;;7.50;99.90;;;;;;5013002;28;20541;-26
2020/12/22 05:47:01;;;;;;;3.10;1.58;;;7.50;99.90;;;;;;5013445;28;20225;-26
2020/12/22 05:49:33;;;;;;;4.47;1.83;;;7.60;99.90;;;;;;5013342;28;20198;-26
2020/12/22 05:52:09;;;;;;;3.33;1.60;;;7.70;99.90;;;;;;5013242;28;20230;-27
2020/12/22 05:54:47;;;;;;;4.88;1.50;;;7.70;99.90;;;;;;5012876;28;20566;-26
2020/12/22 05:57:21;;;;;;;7.38;2.25;;;7.70;99.90;;;;;;5012946;28;20199;-26
2020/12/22 05:59:51;;;;;;;9.32;2.10;;;7.70;99.90;;;;;;5013974;28;20274;-26
2020/12/22 06:02:29;;;;;;;8.35;1.85;;;7.70;99.90;;;;;;5011425;28;20242;-26
2020/12/22 06:05:00;;;;;;;3.10;1.40;;;7.60;99.90;;;;;;5012713;28;20261;-27
2020/12/22 06:07:31;;;;;;;7.18;1.90;;;7.60;99.90;;;;;;5012681;28;20196;-26
2020/12/22 06:10:02;;;;;;;4.82;2.33;;;7.70;99.90;;;;;;5011757;28;20797;-27
2020/12/22 06:12:38;;;;;;;4.32;1.95;;;7.70;99.90;;;;;;5007273;28;20200;-27
2020/12/22 06:15:12;;;;;;;6.68;2.33;;;7.60;99.90;;;;;;5005944;28;20199;-27
2020/12/22 06:17:45;;;;;;;6.93;2.20;;;7.60;99.90;;;;;;5011287;28;20624;-27
2020/12/22 06:20:21;;;;;;;8.85;2.63;;;7.60;99.90;;;;;;5012794;28;20626;-27
2020/12/22 06:22:52;;;;;;;7.20;2.58;;;7.50;99.90;;;;;;5002994;28;20225;-27
2020/12/22 06:25:24;;;;;;;5.40;2.45;;;7.50;99.90;;;;;;5011285;28;20302;-27
2020/12/22 06:27:54;;;;;;;6.82;2.10;;;7.50;99.90;;;;;;5009643;28;20643;-27
2020/12/22 06:30:33;;;;;;;4.80;1.95;;;7.60;99.90;;;;;;5012439;28;20729;-27
2020/12/22 06:33:23;;;;;;;4.70;2.20;;;7.70;99.90;;;;;;5005575;28;20197;-27
2020/12/22 06:36:04;;;;;;;7.97;2.10;;;7.70;99.90;;;;;;5011342;28;20666;-27
2020/12/22 06:38:51;;;;;;;4.07;2.42;;;7.70;99.90;;;;;;5004567;28;20187;-27
2020/12/22 06:41:46;;;;;;;2.45;1.73;;;7.70;99.90;;;;;;4996962;28;20188;-27
2020/12/22 06:44:19;;;;;;;3.15;1.88;;;7.70;99.90;;;;;;4998168;28;20191;-27
2020/12/22 06:46:52;;;;;;;3.45;1.80;;;7.70;99.90;;;;;;5011905;28;20300;-27
2020/12/22 06:49:49;;;;;;;4.40;1.70;;;7.80;99.90;;;;;;5006678;28;20188;-27
2020/12/22 06:52:37;;;;;;;7.80;2.10;;;7.80;99.90;;;;;;4996229;28;20250;-26
2020/12/22 06:55:13;;;;;;;4.80;2.50;;;7.60;99.90;;;;;;5006266;28;20227;-26
2020/12/22 06:57:47;;;;;;;6.43;2.10;;;7.50;99.90;;;;;;5011260;28;20258;-26
2020/12/22 07:00:38;;;;;;;4.20;2.58;;;7.40;99.90;;;;;;4995826;28;20610;-26
2020/12/22 07:03:16;;;;;;;5.65;2.65;;;7.30;99.90;;;;;;5003755;28;20199;-27
2020/12/22 07:05:48;;;;;;;8.35;2.47;;;7.20;99.90;;;;;;5011822;28;20207;-27
2020/12/22 07:08:19;;;;;;;5.28;1.85;;;7.10;99.90;;;;;;5011204;28;20184;-27
2020/12/22 07:10:50;;;;;;;7.30;2.30;;;7.10;99.90;;;;;;5010795;28;20632;-27
2020/12/22 07:13:22;;;;;;;6.45;2.70;;;7.00;99.90;;;;;;5009757;28;20195;-27
2020/12/22 07:15:54;;;;;;;8.75;2.42;;;7.00;99.90;;;;;;5011837;28;20627;-27
2020/12/22 07:18:32;;;;;;;8.45;2.38;;;7.00;99.90;;;;;;4999219;28;20188;-27
2020/12/22 07:21:02;;;;;;;13.55;2.45;;;6.90;99.90;;;;;;5012137;28;20202;-27
2020/12/22 07:23:33;;;;;;;3.85;2.33;;;7.00;99.90;;;;;;5009927;28;20211;-27
2020/12/22 07:26:03;;;;;;;6.45;2.50;;;7.00;99.90;;;;;;5004134;28;20242;-27
2020/12/22 07:28:35;;;;;;;5.55;2.10;;;6.90;99.90;;;;;;5011101;28;20199;-27
2020/12/22 07:31:05;;;;;;;6.72;2.13;;;6.90;99.90;;;;;;5011526;28;20192;-27
2020/12/22 07:33:35;;;;;;;7.28;2.40;;;6.80;99.90;;;;;;4995499;28;20561;-27
2020/12/22 07:36:05;;;;;;;8.38;2.97;;;6.80;99.90;;;;;;5007831;28;20267;-27
2020/12/22 07:38:48;;;;;;;7.88;1.98;;;6.70;99.90;;;;;;5006083;28;20202;-27
2020/12/22 07:41:27;;;;;;;8.05;2.40;;;6.70;99.90;;;;;;5008883;28;20223;-27
2020/12/22 07:44:09;;;;;;;15.73;2.15;;;6.70;99.90;;;;;;5007427;28;20668;-26
2020/12/22 07:46:39;;;;;;;3.17;1.83;;;6.70;99.90;;;;;;5002977;28;20218;-27
2020/12/22 07:49:11;;;;;;;7.80;2.05;;;6.50;99.90;;;;;;5010724;28;20204;-26
2020/12/22 07:51:44;;;;;;;6.72;1.95;;;6.40;99.90;;;;;;5009077;28;20277;-27
2020/12/22 07:54:16;;;;;;;3.72;1.80;;;6.50;99.90;;;;;;5009380;28;20274;-27
2020/12/22 07:56:46;;;;;;;4.80;2.78;;;6.50;99.90;;;;;;5007282;28;20195;-28
2020/12/22 07:59:18;;;;;;;3.33;2.63;;;6.50;99.90;;;;;;5009126;28;20200;-27
2020/12/22 08:01:50;;;;;;;9.27;2.28;;;6.60;99.90;;;;;;5010703;28;20192;-27
2020/12/22 08:04:21;;;;;;;4.30;1.52;;;6.60;99.90;;;;;;5010199;28;20644;-27
2020/12/22 08:07:01;;;;;;;2.50;1.55;;;6.60;99.90;;;;;;5010493;28;20211;-27
2020/12/22 08:09:33;;;;;;;5.10;2.40;;;6.70;99.90;;;;;;4994008;28;20599;-27
2020/12/22 08:12:05;;;;;;;3.75;1.45;;;6.70;99.90;;;;;;5008868;28;20578;-27
2020/12/22 08:14:40;;;;;;;5.20;2.20;;;6.50;99.90;;;;;;5007510;28;20562;-26
2020/12/22 08:17:14;;;;;;;3.97;1.40;;;6.40;99.90;;;;;;5008215;28;20195;-26
2020/12/22 08:19:46;;;;;;;9.48;2.30;;;6.30;99.90;;;;;;5010632;28;20261;-26
2020/12/22 08:22:16;;;;;;;2.78;1.50;;;6.20;99.90;;;;;;5004523;28;20529;-26
2020/12/22 08:24:47;;;;;;;4.50;1.58;;;6.20;99.90;;;;;;5009429;28;20206;-26
2020/12/22 08:27:17;;;;;;;3.15;1.33;;;6.10;99.90;;;;;;5004279;28;20203;-25
2020/12/22 08:29:48;;;;;;;10.95;2.22;;;6.10;99.90;;;;;;5001963;28;20203;-26
2020/12/22 08:32:24;;;;;;;3.90;1.73;;;6.10;99.90;;;;;;5010338;28;20208;-26
2020/12/22 08:34:55;;;;;;;2.67;0.93;;;6.00;99.90;;;;;;5010229;28;20225;-25
2020/12/22 08:37:28;;;;;;;6.28;1.55;;;6.00;99.90;;;;;;4994977;28;20187;-25
2020/12/22 08:40:00;;;;;;;3.90;1.80;;;6.00;99.90;;;;;;5003465;28;20192;-25
2020/12/22 08:42:31;;;;;;;6.07;2.55;;;6.00;99.90;;;;;;4990827;28;20188;-27
2020/12/22 08:45:02;;;;;;;4.22;1.48;;;6.00;99.90;;;;;;5004853;28;20192;-25
2020/12/22 08:47:32;;;;;;;2.83;1.52;;;6.00;99.90;;;;;;5008608;28;20234;-26
2020/12/22 08:50:10;;;;;;;3.97;1.70;;;6.00;99.90;;;;;;5010209;28;20589;-26
2020/12/22 08:52:40;;;;;;;4.47;1.60;;;6.00;99.90;;;;;;5009303;28;20218;-26
2020/12/22 08:55:10;;;;;;;3.70;1.60;;;6.00;99.90;;;;;;5006845;28;20199;-26
2020/12/22 08:57:40;;;;;;;3.78;1.55;;;5.90;99.90;;;;;;5002980;28;20605;-26
2020/12/22 09:00:16;;;;;;;2.58;1.35;;;5.90;99.90;;;;;;5005707;28;20191;-26
2020/12/22 09:02:52;;;;;;;4.80;1.70;;;5.80;99.90;;;;;;5009150;28;20191;-26
2020/12/22 09:05:23;;;;;;;6.78;2.22;;;5.90;99.90;;;;;;4990060;28;20227;-26
2020/12/22 09:07:59;;;;;;;4.97;1.77;;;5.90;99.90;;;;;;5007012;28;20589;-26
2020/12/22 09:10:30;;;;;;;8.75;2.92;;;5.90;99.90;;;;;;5009174;28;20253;-26
2020/12/22 09:13:00;;;;;;;4.45;1.90;;;5.80;99.90;;;;;;5009551;28;20249;-26
2020/12/22 09:15:31;;;;;;;3.00;2.08;;;5.80;99.90;;;;;;5009767;28;20207;-26
2020/12/22 09:18:15;;;;;;;4.65;2.08;;;5.90;99.90;;;;;;5009622;28;20794;-26
2020/12/22 09:21:01;;;;;;;5.07;1.88;;;5.90;99.90;;;;;;5009722;28;20265;-26
2020/12/22 09:23:31;;;;;;;6.38;2.20;;;5.80;99.90;;;;;;5009704;28;20198;-26
2020/12/22 09:26:01;;;;;;;5.18;2.20;;;6.00;99.90;;;;;;5008260;28;20222;-26
2020/12/22 09:28:31;;;;;;;7.75;2.08;;;6.00;99.90;;;;;;5004669;28;20195;-25
2020/12/22 09:31:02;;;;;;;6.13;1.40;;;6.10;99.90;;;;;;5009254;28;20626;-26
2020/12/22 09:33:32;;;;;;;6.95;1.58;;;6.30;99.90;;;;;;5001686;28;20214;-26
2020/12/22 09:36:02;;;;;;;3.45;1.80;;;6.30;99.90;;;;;;5009723;28;20215;-25
2020/12/22 09:38:32;;;;;;;4.50;2.05;;;6.40;99.90;;;;;;5009299;28;20200;-25
2020/12/22 09:41:02;;;;;;;4.40;1.58;;;6.40;99.90;;;;;;5008916;28;20206;-25
2020/12/22 09:43:32;;;;;;;6.88;2.00;;;6.40;99.90;;;;;;5009230;28;20562;-26
2020/12/22 09:46:22;;;;;;;5.95;1.55;;;6.50;99.90;;;;;;4993608;28;20358;-26
2020/12/22 09:48:52;;;;;;;6.15;2.00;;;6.50;99.90;;;;;;5009702;28;20195;-26
2020/12/22 09:51:22;;;;;;;7.30;3.33;;;6.50;99.90;;;;;;5004926;28;20639;-26
2020/12/22 09:53:52;;;;;;;4.10;1.80;;;6.50;99.90;;;;;;4993384;28;20203;-26
2020/12/22 09:56:22;;;;;;;10.30;2.38;;;6.50;99.90;;;;;;4994530;28;20207;-26
2020/12/22 09:58:52;;;;;;;7.72;2.03;;;6.50;99.90;;;;;;5009560;28;20203;-26
2020/12/22 10:01:27;;;;;;;5.75;2.05;;;6.50;99.90;;;;;;5009442;28;20203;-25
2020/12/22 10:03:57;;;;;;;12.05;2.58;;;6.40;99.90;;;;;;5009467;28;20595;-25
2020/12/22 10:06:29;;;;;;;7.45;3.55;;;6.40;99.90;;;;;;5009535;28;20227;-26
2020/12/22 10:08:59;;;;;;;6.22;2.15;;;6.40;99.90;;;;;;5009363;28;20250;-26
2020/12/22 10:11:32;;;;;;;8.15;1.90;;;6.40;99.90;;;;;;5008548;28;20242;-26
2020/12/22 10:14:03;;;;;;;4.97;2.70;;;6.40;99.90;;;;;;4997509;28;20184;-26
2020/12/22 10:16:36;;;;;;;3.88;1.50;;;6.40;99.90;;;;;;5008634;28;20187;-26
2020/12/22 10:19:06;;;;;;;6.53;2.08;;;6.30;99.90;;;;;;5013302;28;20223;-26
2020/12/22 10:21:36;;;;;;;6.65;3.22;;;6.20;99.90;;;;;;5012382;28;20265;-26
2020/12/22 10:24:06;;;;;;;7.10;3.10;;;6.20;99.90;;;;;;5012647;28;20203;-26
2020/12/22 10:26:36;;;;;;;8.40;2.58;;;6.30;99.90;;;;;;5011766;28;20234;-26
2020/12/22 10:29:07;;;;;;;7.70;2.05;;;6.30;99.90;;;;;;5012167;28;20195;-26
2020/12/22 10:31:38;;;;;;;5.05;2.20;;;6.20;99.90;;;;;;5012886;28;20199;-26
2020/12/22 10:34:08;;;;;;;10.32;2.20;;;6.20;99.90;;;;;;5012425;28;20265;-26
2020/12/22 10:36:38;;;;;;;11.27;2.35;;;6.20;99.90;;;;;;5010632;28;20636;-26
2020/12/22 10:39:08;;;;;;;5.10;1.90;;;6.10;99.90;;;;;;5012498;28;20199;-26
2020/12/22 10:41:38;;;;;;;5.80;2.05;;;6.10;99.90;;;;;;5011842;28;20246;-26
2020/12/22 10:44:08;;;;;;;12.18;2.50;;;6.10;99.90;;;;;;5012225;28;20207;-27
2020/12/22 10:46:39;;;;;;;12.98;1.80;;;6.10;99.90;;;;;;5008936;28;20227;-26
2020/12/22 10:49:11;;;;;;;9.45;2.35;;;6.20;99.90;;;;;;5012439;28;20599;-26
2020/12/22 10:51:41;;;;;;;4.25;2.25;;;6.20;99.90;;;;;;5008236;28;20766;-26
2020/12/22 10:54:11;;;;;;;5.88;2.22;;;6.30;99.90;;;;;;5012287;28;20191;-26
2020/12/22 10:56:45;;;;;;;3.15;2.13;;;6.30;99.90;;;;;;5002673;28;20649;-26
2020/12/22 10:59:15;;;;;;;6.80;1.70;;;6.30;99.90;;;;;;4999940;28;20191;-26
2020/12/22 11:01:47;;;;;;;4.82;1.80;;;6.30;99.90;;;;;;5006202;28;20226;-27
2020/12/22 11:04:17;;;;;;;5.07;1.70;;;6.20;99.90;;;;;;5011643;28;20220;-26
2020/12/22 11:07:00;;;;;;;5.75;2.53;;;6.20;99.90;;;;;;5006181;28;20258;-27
2020/12/22 11:09:30;;;;;;;3.00;1.30;;;6.30;99.90;;;;;;5011446;28;20198;-27
2020/12/22 11:12:00;;;;;;;5.10;1.35;;;6.30;99.90;;;;;;5007615;28;20301;-26
2020/12/22 11:14:30;;;;;;;7.65;1.55;;;6.20;99.90;;;;;;5008977;28;20192;-26
2020/12/22 11:17:01;;;;;;;10.68;2.22;;;6.10;99.90;;;;;;5011459;28;20199;-26
2020/12/22 11:19:31;;;;;;;4.47;1.50;;;6.10;99.90;;;;;;5011715;28;20191;-26
2020/12/22 11:22:01;;;;;;;4.53;1.45;;;6.10;99.90;;;;;;5011185;28;20261;-27
2020/12/22 11:24:32;;;;;;;4.22;1.88;;;6.20;99.90;;;;;;5006937;28;20214;-27
2020/12/22 11:27:02;;;;;;;2.70;1.30;;;6.20;99.90;;;;;;4996001;28;20591;-27
2020/12/22 11:29:32;;;;;;;5.53;1.63;;;6.30;99.90;;;;;;5011220;28;20700;-27
2020/12/22 11:32:03;;;;;;;8.00;1.67;;;6.40;99.90;;;;;;5012002;28;20281;-27
2020/12/22 11:34:33;;;;;;;5.13;1.70;;;6.30;99.90;;;;;;5009584;28;20195;-27
2020/12/22 11:37:03;;;;;;;7.15;2.00;;;6.30;99.90;;;;;;5006765;28;20211;-27
2020/12/22 11:39:33;;;;;;;6.85;2.00;;;6.30;99.90;;;;;;5009160;28;20194;-28
2020/12/22 11:42:06;;;;;;;6.07;2.00;;;6.40;99.90;;;;;;5008832;28;20191;-27
2020/12/22 11:44:36;;;;;;;5.55;1.30;;;6.50;99.90;;;;;;5010448;28;20187;-27
2020/12/22 11:47:07;;;;;;;3.25;1.52;;;6.40;99.90;;;;;;5010781;28;20223;-27
2020/12/22 11:49:37;;;;;;;2.55;1.17;;;6.40;99.90;;;;;;5011184;28;20191;-27
2020/12/22 11:52:07;;;;;;;4.00;1.30;;;6.50;99.90;;;;;;5010745;28;20227;-27
2020/12/22 11:54:38;;;;;;;3.53;1.23;;;6.40;99.90;;;;;;5002170;28;20857;-27
2020/12/22 11:57:08;;;;;;;4.10;1.60;;;6.50;99.90;;;;;;5010341;28;20337;-27
2020/12/22 11:59:38;;;;;;;6.28;1.45;;;6.50;99.90;;;;;;5009756;28;20199;-27
2020/12/22 12:02:10;;;;;;;3.85;1.58;;;6.50;99.90;;;;;;5010708;28;20297;-27
2020/12/22 12:04:40;;;;;;;3.45;1.55;;;6.50;99.90;;;;;;5010568;28;20196;-27
2020/12/22 12:07:11;;;;;;;3.83;1.60;;;6.60;99.90;;;;;;4993968;28;20227;-27
2020/12/22 12:09:41;;;;;;;7.70;2.00;;;6.60;99.90;;;;;;5007127;28;20238;-27
2020/12/22 12:12:12;;;;;;;4.60;1.90;;;6.60;99.90;;;;;;5004773;28;20231;-27
2020/12/22 12:14:42;;;;;;;6.57;1.55;;;6.60;99.90;;;;;;5009386;28;20261;-27
2020/12/22 12:17:13;;;;;;;7.55;1.90;;;6.60;99.90;;;;;;5006267;28;20202;-27
2020/12/22 12:19:44;;;;;;;8.07;2.25;;;6.60;99.90;;;;;;5009998;28;20556;-26
2020/12/22 12:22:14;;;;;;;3.10;1.52;;;6.70;99.90;;;;;;5010344;28;20615;-27
2020/12/22 12:24:44;;;;;;;5.25;2.17;;;6.60;99.90;;;;;;5009885;28;20666;-27
2020/12/22 12:27:14;;;;;;;4.55;1.70;;;6.60;99.90;;;;;;4997712;28;20219;-27
2020/12/22 12:29:44;;;;;;;8.10;3.20;;;6.60;99.90;;;;;;5009741;28;20630;-27
2020/12/22 12:32:15;;;;;;;5.57;1.92;;;6.60;99.90;;;;;;4995358;28;20199;-27
2020/12/22 12:34:46;;;;;;;4.55;2.20;;;6.60;99.90;;;;;;5008402;28;20184;-27
2020/12/22 12:37:16;;;;;;;4.05;2.30;;;6.60;99.90;;;;;;4994892;28;20254;-27
2020/12/22 12:39:46;;;;;;;5.25;1.83;;;6.60;99.90;;;;;;5005542;28;20261;-27
2020/12/22 12:42:16;;;;;;;6.45;2.35;;;6.60;99.90;;;;;;5009976;28;20533;-27
2020/12/22 12:44:46;;;;;;;9.10;2.20;;;6.60;99.90;;;;;;5009962;28;20203;-27
2020/12/22 12:47:18;;;;;;;6.63;2.05;;;6.70;99.90;;;;;;5003034;28;20226;-27
2020/12/22 12:49:48;;;;;;;5.15;2.03;;;6.70;99.90;;;;;;5009972;28;20198;-26
2020/12/22 12:52:18;;;;;;;10.15;1.85;;;6.80;99.90;;;;;;5010209;28;20620;-27
2020/12/22 12:54:48;;;;;;;4.50;1.25;;;6.80;99.90;;;;;;5009535;28;20639;-26
2020/12/22 12:57:18;;;;;;;6.35;1.60;;;6.80;99.90;;;;;;5006329;28;20640;-26
2020/12/22 12:59:48;;;;;;;4.30;1.38;;;6.90;99.90;;;;;;5009388;28;20720;-27
2020/12/22 13:02:19;;;;;;;6.38;2.65;;;7.00;99.90;;;;;;5009346;28;20267;-27
2020/12/22 13:04:49;;;;;;;3.33;1.40;;;7.00;99.90;;;;;;5008247;28;20199;-27
2020/12/22 13:07:19;;;;;;;2.88;1.60;;;7.00;99.90;;;;;;5003388;28;20228;-27
2020/12/22 13:09:49;;;;;;;3.92;1.60;;;7.00;99.90;;;;;;5009015;28;20956;-28
2020/12/22 13:12:20;;;;;;;4.65;1.80;;;6.90;99.90;;;;;;5008799;28;20594;-27
2020/12/22 13:14:50;;;;;;;7.65;2.05;;;7.00;99.90;;;;;;5009359;28;20303;-27
2020/12/22 13:17:21;;;;;;;4.20;1.98;;;7.00;99.90;;;;;;5007978;28;20234;-27
2020/12/22 13:19:51;;;;;;;7.95;2.03;;;7.00;99.90;;;;;;4994068;28;20265;-28